createdAt,value
2018-04-19T00:00:34.843Z,83.80
2018-04-19T00:03:45.317Z,90.90
2018-04-19T00:06:54.791Z,91.60
2018-04-19T00:10:06.686Z,84.90
2018-04-19T00:13:16.727Z,85.10
2018-04-19T00:16:26.576Z,85.50
2018-04-19T00:19:36.835Z,86.50
2018-04-19T00:22:46.230Z,92.20
2018-04-19T00:25:56.535Z,86.50
2018-04-19T00:29:06.974Z,86.40
2018-04-19T00:32:16.433Z,92.50
2018-04-19T00:35:25.870Z,91.90
2018-04-19T00:38:36.145Z,87.50
2018-04-19T00:41:45.557Z,92.60
2018-04-19T00:44:55.564Z,87.10
2018-04-19T00:51:17.135Z,85.90
2018-04-19T00:54:27.427Z,86.50
2018-04-19T00:57:37.673Z,86.30
2018-04-19T01:00:47.971Z,86.20
2018-04-19T01:03:57.798Z,89.20
2018-04-19T01:10:18.003Z,91.70
2018-04-19T01:13:28.371Z,85.20
2018-04-19T01:16:37.927Z,91.80
2018-04-19T01:19:47.702Z,85.70
2018-04-19T01:22:57.920Z,85.20
2018-04-19T01:29:19.486Z,86.30
2018-04-19T01:32:30.653Z,83.80
2018-04-19T01:35:57.988Z,91.50
2018-04-19T01:39:07.767Z,91.50
2018-04-19T01:42:18.193Z,84.60
2018-04-19T01:45:27.553Z,91.90
2018-04-19T01:48:37.176Z,91.90
2018-04-19T01:51:47.930Z,90.20
2018-04-19T01:54:57.528Z,91.70
2018-04-19T01:58:07.412Z,85.20
2018-04-19T02:01:16.852Z,91.70
2018-04-19T02:04:26.301Z,91.90
2018-04-19T02:07:35.699Z,91.70
2018-04-19T02:10:45.571Z,84.20
2018-04-19T02:13:54.994Z,91.80
2018-04-19T02:17:09.293Z,86.10
2018-04-19T02:20:18.777Z,90.70
2018-04-19T02:23:28.253Z,92.30
2018-04-19T02:26:38.535Z,90.40
2018-04-19T02:29:47.906Z,92.30
2018-04-19T02:32:57.343Z,92.20
2018-04-19T02:36:07.604Z,86.30
2018-04-19T02:39:17.089Z,92.40
2018-04-19T02:42:26.476Z,92.70
2018-04-19T02:45:36.766Z,87.40
2018-04-19T02:48:46.264Z,92.90
2018-04-19T02:52:00.222Z,87.20
2018-04-19T02:55:09.684Z,92.90
2018-04-19T02:58:22.994Z,92.80
2018-04-19T03:01:33.697Z,88.90
2018-04-19T03:04:43.145Z,93.20
2018-04-19T03:07:53.365Z,88.50
2018-04-19T03:11:03.664Z,88.60
2018-04-19T03:14:15.139Z,88.50
2018-04-19T03:17:24.799Z,90.00
2018-04-19T03:20:34.738Z,88.70
2018-04-19T03:23:45.068Z,93.10
2018-04-19T03:26:55.394Z,88.60
2018-04-19T03:30:05.236Z,88.10
2018-04-19T03:33:16.119Z,87.40
2018-04-19T03:36:26.340Z,87.20
2018-04-19T03:39:36.383Z,86.60
2018-04-19T03:42:46.234Z,87.00
2018-04-19T03:45:57.595Z,88.30
2018-04-19T03:49:08.848Z,87.00
2018-04-19T03:52:18.276Z,90.30
2018-04-19T03:55:28.485Z,88.10
2018-04-19T03:58:38.368Z,90.90
2018-04-19T04:01:48.044Z,89.70
2018-04-19T04:04:57.534Z,94.20
2018-04-19T04:08:07.753Z,89.20
2018-04-19T04:11:18.353Z,89.60
2018-04-19T04:14:28.640Z,89.50
2018-04-19T04:17:56.273Z,91.10
2018-04-19T04:21:18.657Z,95.00
2018-04-19T04:24:27.994Z,95.40
2018-04-19T04:27:37.367Z,95.10
2018-04-19T04:30:46.756Z,95.10
2018-04-19T04:33:57.264Z,94.90
2018-04-19T04:37:06.734Z,95.30
2018-04-19T04:40:16.127Z,95.20
2018-04-19T04:43:25.582Z,94.70
2018-04-19T04:46:35.632Z,95.00
2018-04-19T04:49:45.855Z,90.50
2018-04-19T04:52:55.430Z,94.70
2018-04-19T04:56:04.783Z,95.00
2018-04-19T04:59:14.597Z,91.00
2018-04-19T05:02:24.457Z,86.70
2018-04-19T05:05:34.903Z,85.80
2018-04-19T05:08:44.786Z,85.90
2018-04-19T05:11:55.004Z,86.50
2018-04-19T05:15:04.502Z,92.60
2018-04-19T05:18:13.922Z,90.30
2018-04-19T05:21:23.407Z,92.30
2018-04-19T05:24:33.584Z,84.60
2018-04-19T05:27:43.856Z,84.20
2018-04-19T05:30:54.508Z,83.20
2018-04-19T05:34:04.253Z,84.40
2018-04-19T05:37:15.691Z,82.60
2018-04-19T05:40:26.016Z,89.60
2018-04-19T05:43:35.703Z,81.60
2018-04-19T05:46:45.949Z,81.70
2018-04-19T05:49:55.302Z,89.90
2018-04-19T05:53:05.016Z,80.20
2018-04-19T05:56:15.280Z,80.50
2018-04-19T05:59:25.518Z,79.70
2018-04-19T06:02:35.804Z,79.50
2018-04-19T06:05:45.664Z,79.50
2018-04-19T06:08:56.384Z,87.30
2018-04-19T06:12:06.199Z,76.90
2018-04-19T06:15:17.085Z,77.00
2018-04-19T06:18:26.885Z,79.60
2018-04-19T06:21:36.336Z,83.70
2018-04-19T06:24:46.193Z,75.70
2018-04-19T06:27:56.085Z,74.20
2018-04-19T06:31:05.540Z,82.70
2018-04-19T06:34:15.709Z,74.40
2018-04-19T06:37:25.805Z,73.70
2018-04-19T06:40:36.027Z,71.60
2018-04-19T06:43:45.476Z,79.40
2018-04-19T06:46:54.968Z,76.80
2018-04-19T06:50:04.860Z,70.50
2018-04-19T06:53:14.416Z,76.40
2018-04-19T06:56:25.928Z,69.10
2018-04-19T06:59:35.776Z,68.90
2018-04-19T07:02:46.211Z,76.20
2018-04-19T07:05:55.682Z,74.80
2018-04-19T07:09:08.059Z,74.30
2018-04-19T07:12:17.395Z,75.20
2018-04-19T07:15:27.693Z,65.20
2018-04-19T07:18:37.911Z,62.50
2018-04-19T07:21:47.812Z,66.80
2018-04-19T07:24:58.008Z,65.80
2018-04-19T07:28:08.312Z,65.00
2018-04-19T07:31:17.956Z,65.00
2018-04-19T07:34:28.202Z,62.70
2018-04-19T07:37:37.874Z,69.40
2018-04-19T07:40:48.094Z,62.30
2018-04-19T07:43:57.543Z,66.80
2018-04-19T07:47:07.780Z,61.80
2018-04-19T07:50:17.701Z,59.80
2018-04-19T07:53:28.180Z,59.60
2018-04-19T07:56:37.649Z,62.90
2018-04-19T07:59:47.385Z,64.80
2018-04-19T08:02:57.318Z,55.20
2018-04-19T08:06:07.316Z,54.70
2018-04-19T08:09:16.768Z,58.80
2018-04-19T08:12:28.287Z,54.20
2018-04-19T08:15:38.366Z,55.40
2018-04-19T08:18:48.753Z,52.90
2018-04-19T08:21:59.515Z,53.10
2018-04-19T08:25:08.873Z,57.20
2018-04-19T08:28:20.557Z,53.10
2018-04-19T08:31:30.065Z,55.60
2018-04-19T08:34:40.520Z,55.20
2018-04-19T08:37:55.323Z,49.80
2018-04-19T08:41:08.279Z,50.60
2018-04-19T08:44:20.641Z,49.20
2018-04-19T08:47:31.765Z,51.10
2018-04-19T08:50:41.380Z,53.40
2018-04-19T08:53:50.741Z,53.60
2018-04-19T08:57:00.227Z,49.50
2018-04-19T09:00:09.617Z,48.50
2018-04-19T09:03:19.617Z,46.70
2018-04-19T09:06:33.564Z,43.40
2018-04-19T09:09:42.953Z,44.10
2018-04-19T09:12:52.255Z,43.10
2018-04-19T09:16:02.579Z,41.50
2018-04-19T09:19:15.999Z,37.40
2018-04-19T09:22:25.437Z,37.70
2018-04-19T09:25:38.706Z,37.70
2018-04-19T09:28:48.116Z,36.10
2018-04-19T09:31:57.431Z,35.30
2018-04-19T09:35:06.704Z,31.70
2018-04-19T09:38:16.118Z,32.70
2018-04-19T09:41:25.561Z,31.60
2018-04-19T09:44:34.932Z,30.90
2018-04-19T09:47:45.275Z,30.40
2018-04-19T09:50:54.668Z,29.90
2018-04-19T09:54:04.271Z,29.50
2018-04-19T09:57:14.460Z,29.20
2018-04-19T10:00:23.797Z,30.30
2018-04-19T10:03:38.652Z,29.70
2018-04-19T10:06:48.007Z,32.00
2018-04-19T10:09:57.474Z,28.30
2018-04-19T10:13:06.976Z,28.70
2018-04-19T10:16:16.385Z,29.00
2018-04-19T10:19:25.834Z,28.20
2018-04-19T10:22:35.232Z,28.60
2018-04-19T10:25:44.570Z,28.20
2018-04-19T10:28:54.067Z,27.40
2018-04-19T10:32:08.072Z,27.00
2018-04-19T10:35:17.740Z,27.30
2018-04-19T10:38:27.180Z,27.40
2018-04-19T10:41:36.856Z,26.30
2018-04-19T10:44:46.324Z,27.10
2018-04-19T10:47:56.786Z,26.90
2018-04-19T10:51:06.241Z,28.00
2018-04-19T10:54:15.555Z,26.60
2018-04-19T10:57:25.040Z,26.20
2018-04-19T11:00:34.496Z,27.00
2018-04-19T11:03:43.854Z,28.40
2018-04-19T11:06:54.044Z,25.20
2018-04-19T11:10:03.423Z,24.70
2018-04-19T11:13:13.128Z,23.40
2018-04-19T11:16:22.705Z,24.10
2018-04-19T11:19:32.320Z,24.40
2018-04-19T11:22:43.026Z,23.10
2018-04-19T11:25:53.216Z,24.10
2018-04-19T11:29:02.603Z,23.60
2018-04-19T11:32:12.124Z,23.90
2018-04-19T11:35:21.455Z,23.00
2018-04-19T11:38:30.970Z,22.70
2018-04-19T11:41:40.443Z,21.80
2018-04-19T11:44:49.801Z,21.70
2018-04-19T11:47:59.293Z,22.30
2018-04-19T11:51:08.920Z,22.30
2018-04-19T11:54:19.489Z,21.60
2018-04-19T11:57:29.630Z,21.30
2018-04-19T12:00:39.063Z,22.10
2018-04-19T12:03:48.951Z,22.40
2018-04-19T12:06:58.703Z,21.50
2018-04-19T12:10:13.212Z,21.90
2018-04-19T12:13:23.672Z,21.20
2018-04-19T12:16:34.073Z,22.40
2018-04-19T12:19:45.579Z,21.50
2018-04-19T12:22:54.867Z,20.90
2018-04-19T12:26:09.224Z,22.20
2018-04-19T12:29:18.661Z,20.80
2018-04-19T12:32:28.824Z,19.70
2018-04-19T12:35:38.256Z,22.40
2018-04-19T12:38:48.511Z,20.60
2018-04-19T12:41:58.896Z,19.40
2018-04-19T12:45:08.226Z,20.00
2018-04-19T12:48:17.656Z,20.80
2018-04-19T12:51:31.380Z,21.50
2018-04-19T12:54:40.754Z,20.60
2018-04-19T12:57:50.205Z,22.00
2018-04-19T13:00:59.637Z,22.20
2018-04-19T13:04:12.513Z,19.60
2018-04-19T13:07:22.030Z,19.50
2018-04-19T13:10:31.440Z,19.90
2018-04-19T13:13:40.976Z,19.10
2018-04-19T13:16:51.643Z,19.20
2018-04-19T13:20:00.893Z,18.90
2018-04-19T13:23:10.404Z,17.50
2018-04-19T13:26:19.696Z,18.30
2018-04-19T13:29:29.183Z,19.10
2018-04-19T13:32:40.028Z,18.50
2018-04-19T13:35:49.688Z,17.90
2018-04-19T13:38:59.068Z,18.80
2018-04-19T13:42:09.523Z,17.60
2018-04-19T13:45:18.964Z,16.80
2018-04-19T13:48:29.258Z,17.60
2018-04-19T13:51:40.363Z,17.90
2018-04-19T13:54:50.542Z,18.40
2018-04-19T13:58:03.449Z,17.20
2018-04-19T14:01:12.824Z,16.70
2018-04-19T14:04:22.975Z,16.90
2018-04-19T14:07:32.330Z,17.40
2018-04-19T14:10:42.578Z,17.30
2018-04-19T14:13:52.061Z,17.60
2018-04-19T14:17:02.396Z,17.70
2018-04-19T14:20:12.721Z,17.60
2018-04-19T14:23:22.035Z,17.60
2018-04-19T14:26:31.380Z,17.60
2018-04-19T14:29:42.368Z,17.00
2018-04-19T14:32:54.086Z,16.70
2018-04-19T14:36:03.825Z,18.00
2018-04-19T14:39:13.941Z,18.00
2018-04-19T14:42:23.955Z,18.00
2018-04-19T14:45:35.040Z,17.90
2018-04-19T14:48:44.985Z,18.20
2018-04-19T14:51:56.185Z,17.90
2018-04-19T14:55:05.567Z,17.10
2018-04-19T14:58:16.301Z,16.50
2018-04-19T15:01:25.821Z,16.30
2018-04-19T15:04:35.133Z,16.00
2018-04-19T15:07:45.119Z,16.50
2018-04-19T15:10:56.649Z,16.20
2018-04-19T15:14:06.049Z,16.80
2018-04-19T15:17:16.563Z,17.70
2018-04-19T15:20:26.240Z,16.40
2018-04-19T15:23:36.882Z,15.00
2018-04-19T15:26:47.012Z,16.30
2018-04-19T15:29:57.668Z,15.60
2018-04-19T15:33:07.500Z,15.90
2018-04-19T15:36:17.023Z,15.50
2018-04-19T15:39:27.370Z,15.50
2018-04-19T15:42:37.316Z,16.00
2018-04-19T15:45:48.112Z,15.50
2018-04-19T15:48:57.399Z,16.20
2018-04-19T15:52:06.808Z,16.50
2018-04-19T15:55:16.424Z,15.80
2018-04-19T15:58:25.900Z,16.30
2018-04-19T16:01:35.409Z,16.70
2018-04-19T16:04:44.826Z,17.50
2018-04-19T16:07:54.952Z,16.50
2018-04-19T16:11:06.959Z,17.20
2018-04-19T16:14:16.260Z,17.80
2018-04-19T16:17:25.672Z,18.30
2018-04-19T16:20:35.304Z,17.40
2018-04-19T16:23:45.536Z,18.50
2018-04-19T16:26:55.123Z,18.80
2018-04-19T16:30:04.368Z,17.80
2018-04-19T16:33:16.913Z,18.00
2018-04-19T16:36:28.396Z,19.40
2018-04-19T16:39:37.837Z,19.50
2018-04-19T16:42:47.254Z,19.20
2018-04-19T16:45:56.808Z,20.10
2018-04-19T16:49:06.115Z,20.30
2018-04-19T16:52:15.605Z,20.50
2018-04-19T16:55:25.431Z,22.10
2018-04-19T16:58:35.661Z,22.80
2018-04-19T17:01:47.186Z,23.00
2018-04-19T17:04:56.515Z,23.60
2018-04-19T17:08:06.058Z,23.30
2018-04-19T17:11:17.022Z,24.90
2018-04-19T17:14:27.548Z,24.20
2018-04-19T17:17:37.771Z,24.70
2018-04-19T17:20:47.773Z,23.30
2018-04-19T17:23:58.071Z,22.80
2018-04-19T17:27:07.624Z,23.30
2018-04-19T17:30:17.288Z,22.80
2018-04-19T17:33:27.502Z,23.30
2018-04-19T17:36:36.876Z,24.10
2018-04-19T17:39:48.944Z,23.50
2018-04-19T17:42:58.363Z,24.50
2018-04-19T17:46:07.891Z,24.70
2018-04-19T17:49:17.464Z,24.50
2018-04-19T17:52:27.757Z,25.60
2018-04-19T17:55:37.699Z,26.40
2018-04-19T17:58:49.792Z,26.50
2018-04-19T18:01:59.464Z,27.40
2018-04-19T18:05:08.948Z,27.80
2018-04-19T18:08:19.022Z,28.40
2018-04-19T18:11:29.192Z,30.30
2018-04-19T18:14:41.180Z,30.00
2018-04-19T18:17:52.582Z,30.50
2018-04-19T18:21:02.585Z,31.90
2018-04-19T18:24:12.457Z,34.00
2018-04-19T18:27:21.826Z,35.50
2018-04-19T18:30:31.732Z,35.20
2018-04-19T18:33:41.846Z,37.50
2018-04-19T18:36:52.083Z,36.70
2018-04-19T18:40:01.650Z,38.50
2018-04-19T18:43:12.075Z,40.00
2018-04-19T18:46:22.062Z,37.30
2018-04-19T18:49:31.500Z,39.40
2018-04-19T18:52:41.376Z,38.20
2018-04-19T18:55:52.395Z,38.20
2018-04-19T18:59:02.705Z,39.50
2018-04-19T19:02:12.066Z,42.00
2018-04-19T19:05:21.679Z,43.30
2018-04-19T19:08:32.212Z,44.30
2018-04-19T19:11:42.256Z,42.70
2018-04-19T19:14:52.386Z,41.40
2018-04-19T19:18:19.616Z,45.40
2018-04-19T19:21:30.257Z,44.70
2018-04-19T19:24:40.933Z,41.50
2018-04-19T19:27:52.383Z,41.90
2018-04-19T19:31:03.160Z,42.40
2018-04-19T19:34:14.562Z,47.50
2018-04-19T19:37:24.268Z,43.60
2018-04-19T19:40:34.913Z,43.90
2018-04-19T19:43:45.263Z,44.90
2018-04-19T19:46:55.136Z,46.50
2018-04-19T19:50:04.952Z,45.50
2018-04-19T19:53:14.641Z,45.00
2018-04-19T19:56:26.452Z,46.00
2018-04-19T19:59:37.171Z,45.70
2018-04-19T20:02:46.872Z,49.50
2018-04-19T20:05:57.111Z,46.60
2018-04-19T20:09:07.385Z,46.60
2018-04-19T20:12:22.120Z,46.60
2018-04-19T20:15:33.012Z,46.50
2018-04-19T20:18:43.360Z,51.80
2018-04-19T20:21:54.284Z,47.70
2018-04-19T20:25:04.969Z,47.60
2018-04-19T20:28:14.415Z,53.10
2018-04-19T20:31:24.235Z,47.60
2018-04-19T20:34:33.896Z,52.80
2018-04-19T20:37:43.608Z,49.40
2018-04-19T20:40:55.683Z,48.80
2018-04-19T20:44:05.491Z,49.20
2018-04-19T20:47:15.427Z,52.40
2018-04-19T20:50:25.409Z,50.00
2018-04-19T20:53:36.002Z,55.60
2018-04-19T20:56:45.378Z,55.90
2018-04-19T20:59:55.576Z,51.20
2018-04-19T21:03:05.003Z,56.50
2018-04-19T21:06:14.472Z,56.90
2018-04-19T21:09:23.872Z,57.40
2018-04-19T21:12:35.144Z,58.20
2018-04-19T21:15:46.728Z,54.00
2018-04-19T21:18:56.719Z,55.00
2018-04-19T21:22:06.917Z,54.00
2018-04-19T21:25:16.423Z,59.90
2018-04-19T21:28:26.712Z,54.70
2018-04-19T21:31:37.324Z,55.60
2018-04-19T21:34:46.853Z,60.90
2018-04-19T21:37:57.208Z,55.80
2018-04-19T21:41:06.644Z,62.10
2018-04-19T21:44:16.871Z,60.90
2018-04-19T21:47:26.364Z,60.20
2018-04-19T21:50:35.779Z,62.90
2018-04-19T21:53:46.037Z,56.90
2018-04-19T21:56:57.128Z,56.70
2018-04-19T22:00:08.082Z,56.30
2018-04-19T22:03:17.510Z,59.00
2018-04-19T22:06:26.885Z,63.30
2018-04-19T22:09:36.704Z,58.00
2018-04-19T22:12:46.945Z,56.10
2018-04-19T22:15:58.050Z,56.40
2018-04-19T22:19:08.725Z,56.70
2018-04-19T22:22:18.161Z,62.80
2018-04-19T22:25:28.025Z,57.60
2018-04-19T22:28:39.097Z,56.60
2018-04-19T22:31:48.518Z,59.70
2018-04-19T22:34:59.886Z,56.00
2018-04-19T22:38:09.286Z,62.10
2018-04-19T22:41:19.144Z,56.20
2018-04-19T22:44:29.271Z,59.10
2018-04-19T22:47:39.339Z,57.40
2018-04-19T22:50:49.058Z,57.00
2018-04-19T22:53:59.805Z,57.80
2018-04-19T22:57:09.985Z,58.00
2018-04-19T23:00:20.832Z,57.80
2018-04-19T23:03:30.978Z,58.00
2018-04-19T23:06:40.382Z,63.60
2018-04-19T23:09:50.262Z,59.70
2018-04-19T23:13:00.484Z,59.70
2018-04-19T23:16:10.739Z,59.50
2018-04-19T23:19:20.792Z,59.10
2018-04-19T23:22:35.262Z,67.60
2018-04-19T23:25:44.786Z,67.60
2018-04-19T23:28:54.209Z,68.40
2018-04-19T23:32:03.663Z,68.90
2018-04-19T23:35:13.943Z,60.90
2018-04-19T23:38:23.782Z,61.70
2018-04-19T23:41:33.393Z,70.10
2018-04-19T23:44:42.862Z,70.80
2018-04-19T23:47:52.747Z,62.90
2018-04-19T23:51:02.817Z,63.50
2018-04-19T23:54:13.256Z,63.90
2018-04-19T23:57:27.758Z,64.20
